createdAt,value
2022-10-11T00:01:48.060Z,100.00
2022-10-11T00:04:14.792Z,100.00
2022-10-11T00:06:43.643Z,100.00
2022-10-11T00:09:14.903Z,100.00
2022-10-11T00:11:42.149Z,100.00
2022-10-11T00:14:08.892Z,100.00
2022-10-11T00:16:35.868Z,100.00
2022-10-11T00:19:02.624Z,100.00
2022-10-11T00:21:30.670Z,100.00
2022-10-11T00:23:57.420Z,100.00
2022-10-11T00:26:24.137Z,100.00
2022-10-11T00:28:52.738Z,100.00
2022-10-11T00:31:20.471Z,100.00
2022-10-11T00:33:47.469Z,100.00
2022-10-11T00:36:16.792Z,100.00
2022-10-11T00:38:44.691Z,100.00
2022-10-11T00:41:11.941Z,100.00
2022-10-11T00:43:38.907Z,100.00
2022-10-11T00:46:13.595Z,100.00
2022-10-11T00:48:46.019Z,100.00
2022-10-11T00:51:21.035Z,100.00
2022-10-11T00:53:50.809Z,100.00
2022-10-11T00:56:23.816Z,100.00
2022-10-11T00:58:51.038Z,100.00
2022-10-11T01:01:17.699Z,100.00
2022-10-11T01:03:44.979Z,100.00
2022-10-11T01:06:11.655Z,100.00
2022-10-11T01:08:38.880Z,100.00
2022-10-11T01:11:05.824Z,100.00
2022-10-11T01:13:38.113Z,100.00
2022-10-11T01:16:29.960Z,100.00
2022-10-11T01:19:14.536Z,100.00
2022-10-11T01:21:52.199Z,100.00
2022-10-11T01:24:53.039Z,100.00
2022-10-11T01:27:45.221Z,100.00
2022-10-11T01:30:31.780Z,100.00
2022-10-11T01:33:04.272Z,100.00
2022-10-11T01:35:35.517Z,100.00
2022-10-11T01:38:18.082Z,100.00
2022-10-11T01:40:56.460Z,100.00
2022-10-11T01:43:24.627Z,100.00
2022-10-11T01:45:55.191Z,100.00
2022-10-11T01:48:22.028Z,100.00
2022-10-11T01:50:58.612Z,100.00
2022-10-11T01:54:04.241Z,100.00
2022-10-11T01:56:55.254Z,100.00
2022-10-11T01:59:28.563Z,100.00
2022-10-11T02:01:58.213Z,100.00
2022-10-11T02:04:36.192Z,100.00
2022-10-11T02:07:33.669Z,100.00
2022-10-11T02:10:24.661Z,100.00
2022-10-11T02:13:02.421Z,100.00
2022-10-11T02:15:32.889Z,100.00
2022-10-11T02:18:03.325Z,100.00
2022-10-11T02:20:33.706Z,100.00
2022-10-11T02:23:08.145Z,100.00
2022-10-11T02:25:36.515Z,100.00
2022-10-11T02:28:11.344Z,100.00
2022-10-11T02:30:42.117Z,100.00
2022-10-11T02:33:13.125Z,100.00
2022-10-11T02:35:47.224Z,100.00
2022-10-11T02:38:24.942Z,100.00
2022-10-11T02:41:01.221Z,100.00
2022-10-11T02:43:41.590Z,100.00
2022-10-11T02:46:09.998Z,100.00
2022-10-11T02:48:37.511Z,100.00
2022-10-11T02:51:04.920Z,100.00
2022-10-11T02:53:32.332Z,100.00
2022-10-11T02:55:59.129Z,100.00
2022-10-11T02:58:25.926Z,100.00
2022-10-11T03:00:52.642Z,100.00
2022-10-11T03:03:19.368Z,100.00
2022-10-11T03:05:46.141Z,100.00
2022-10-11T03:08:14.487Z,100.00
2022-10-11T03:10:41.984Z,100.00
2022-10-11T03:13:09.075Z,100.00
2022-10-11T03:15:35.856Z,100.00
2022-10-11T03:18:02.576Z,100.00
2022-10-11T03:20:29.268Z,100.00
2022-10-11T03:22:56.007Z,100.00
2022-10-11T03:25:22.676Z,100.00
2022-10-11T03:27:49.391Z,100.00
2022-10-11T03:30:18.290Z,100.00
2022-10-11T03:32:45.562Z,100.00
2022-10-11T03:35:12.428Z,100.00
2022-10-11T03:37:39.131Z,100.00
2022-10-11T03:40:08.405Z,100.00
2022-10-11T03:42:36.048Z,100.00
2022-10-11T03:45:05.110Z,100.00
2022-10-11T03:47:32.323Z,100.00
2022-10-11T03:49:59.020Z,100.00
2022-10-11T03:52:25.764Z,100.00
2022-10-11T03:54:52.690Z,100.00
2022-10-11T03:57:19.643Z,100.00
2022-10-11T03:59:46.373Z,100.00
2022-10-11T04:02:13.209Z,100.00
2022-10-11T04:04:40.001Z,100.00
2022-10-11T04:07:06.703Z,100.00
2022-10-11T04:09:33.655Z,100.00
2022-10-11T04:12:00.900Z,100.00
2022-10-11T04:14:27.451Z,100.00
2022-10-11T04:16:56.420Z,100.00
2022-10-11T04:19:26.733Z,100.00
2022-10-11T04:21:53.425Z,100.00
2022-10-11T04:24:20.342Z,100.00
2022-10-11T04:26:47.113Z,100.00
2022-10-11T04:29:13.966Z,100.00
2022-10-11T04:31:40.667Z,100.00
2022-10-11T04:34:07.376Z,100.00
2022-10-11T04:36:34.112Z,100.00
2022-10-11T04:39:01.714Z,100.00
2022-10-11T04:41:29.422Z,100.00
2022-10-11T04:43:56.227Z,100.00
2022-10-11T04:46:23.531Z,100.00
2022-10-11T04:48:50.601Z,100.00
2022-10-11T04:51:17.857Z,100.00
2022-10-11T04:53:44.609Z,100.00
2022-10-11T04:56:12.096Z,100.00
2022-10-11T04:58:41.011Z,100.00
2022-10-11T05:01:09.044Z,100.00
2022-10-11T05:03:36.148Z,100.00
2022-10-11T05:06:05.926Z,100.00
2022-10-11T05:08:34.304Z,100.00
2022-10-11T05:11:04.134Z,100.00
2022-10-11T05:13:32.391Z,100.00
2022-10-11T05:15:59.743Z,100.00
2022-10-11T05:18:27.333Z,100.00
2022-10-11T05:21:21.292Z,100.00
2022-10-11T05:23:49.981Z,100.00
2022-10-11T05:26:18.107Z,100.00
2022-10-11T05:28:45.305Z,100.00
2022-10-11T05:31:12.528Z,100.00
2022-10-11T05:33:39.333Z,100.00
2022-10-11T05:36:07.524Z,100.00
2022-10-11T05:38:35.006Z,100.00
2022-10-11T05:41:02.478Z,100.00
2022-10-11T05:43:30.041Z,100.00
2022-10-11T05:45:57.682Z,100.00
2022-10-11T05:48:26.699Z,100.00
2022-10-11T05:50:58.405Z,100.00
2022-10-11T05:53:25.111Z,100.00
2022-10-11T05:55:51.792Z,100.00
2022-10-11T05:58:18.876Z,100.00
2022-10-11T06:00:45.594Z,100.00
2022-10-11T06:03:13.186Z,100.00
2022-10-11T06:05:40.139Z,100.00
2022-10-11T06:08:08.708Z,100.00
2022-10-11T06:10:36.200Z,100.00
2022-10-11T06:13:03.035Z,100.00
2022-10-11T06:15:29.876Z,100.00
2022-10-11T06:17:56.612Z,100.00
2022-10-11T06:20:23.411Z,100.00
2022-10-11T06:22:50.129Z,100.00
2022-10-11T06:25:16.838Z,100.00
2022-10-11T06:27:43.541Z,100.00
2022-10-11T06:30:10.603Z,100.00
2022-10-11T06:32:37.732Z,100.00
2022-10-11T06:35:05.628Z,100.00
2022-10-11T06:37:32.412Z,100.00
2022-10-11T06:39:59.117Z,100.00
2022-10-11T06:42:25.844Z,100.00
2022-10-11T06:44:52.563Z,100.00
2022-10-11T06:47:19.268Z,100.00
2022-10-11T06:49:45.982Z,100.00
2022-10-11T06:52:12.739Z,100.00
2022-10-11T06:54:44.577Z,100.00
2022-10-11T06:57:11.936Z,100.00
2022-10-11T06:59:38.618Z,100.00
2022-10-11T07:02:05.352Z,100.00
2022-10-11T07:04:33.856Z,100.00
2022-10-11T07:07:00.783Z,100.00
2022-10-11T07:09:27.505Z,100.00
2022-10-11T07:11:54.228Z,100.00
2022-10-11T07:14:20.925Z,100.00
2022-10-11T07:16:47.628Z,100.00
2022-10-11T07:19:14.385Z,100.00
2022-10-11T07:21:41.244Z,100.00
2022-10-11T07:24:08.096Z,100.00
2022-10-11T07:26:38.907Z,100.00
2022-10-11T07:29:08.001Z,100.00
2022-10-11T07:31:39.929Z,100.00
2022-10-11T07:34:07.132Z,100.00
2022-10-11T07:36:34.555Z,100.00
2022-10-11T07:39:04.799Z,100.00
2022-10-11T07:41:31.489Z,100.00
2022-10-11T07:43:58.268Z,100.00
2022-10-11T07:46:25.025Z,100.00
2022-10-11T07:48:51.750Z,100.00
2022-10-11T07:51:21.434Z,100.00
2022-10-11T07:53:50.641Z,100.00
2022-10-11T07:56:27.732Z,100.00
2022-10-11T07:59:00.301Z,100.00
2022-10-11T08:01:28.536Z,100.00
2022-10-11T08:03:56.947Z,100.00
2022-10-11T08:06:29.217Z,100.00
2022-10-11T08:08:56.888Z,100.00
2022-10-11T08:11:29.737Z,100.00
2022-10-11T08:13:58.036Z,100.00
2022-10-11T08:16:25.205Z,100.00
2022-10-11T08:18:52.034Z,100.00
2022-10-11T08:21:19.218Z,100.00
2022-10-11T08:23:46.240Z,100.00
2022-10-11T08:26:13.236Z,100.00
2022-10-11T08:28:40.044Z,100.00
2022-10-11T08:31:07.196Z,100.00
2022-10-11T08:33:33.799Z,100.00
2022-10-11T08:36:05.163Z,100.00
2022-10-11T08:38:32.267Z,100.00
2022-10-11T08:41:32.756Z,100.00
2022-10-11T08:44:17.667Z,100.00
2022-10-11T08:46:50.543Z,100.00
2022-10-11T08:49:19.881Z,100.00
2022-10-11T08:51:52.635Z,100.00
2022-10-11T08:54:31.272Z,100.00
2022-10-11T08:56:58.024Z,100.00
2022-10-11T08:59:41.160Z,100.00
2022-10-11T09:02:55.677Z,100.00
2022-10-11T09:05:25.642Z,100.00
2022-10-11T09:08:14.758Z,100.00
2022-10-11T09:10:44.150Z,100.00
2022-10-11T09:13:41.564Z,100.00
2022-10-11T09:16:49.484Z,100.00
2022-10-11T09:19:53.485Z,100.00
2022-10-11T09:22:34.395Z,100.00
2022-10-11T09:25:19.397Z,98.83
2022-10-11T09:28:04.267Z,96.36
2022-10-11T09:30:33.020Z,96.85
2022-10-11T09:33:17.355Z,93.90
2022-10-11T09:35:50.991Z,97.35
2022-10-11T09:38:36.714Z,95.05
2022-10-11T09:41:25.220Z,90.65
2022-10-11T09:43:52.746Z,92.16
2022-10-11T09:46:34.726Z,85.89
2022-10-11T09:49:04.642Z,92.25
2022-10-11T09:51:31.716Z,86.73
2022-10-11T09:54:05.001Z,84.92
2022-10-11T09:56:34.677Z,84.33
2022-10-11T09:59:28.970Z,89.18
2022-10-11T10:02:26.607Z,87.33
2022-10-11T10:04:57.654Z,92.22
2022-10-11T10:07:24.994Z,92.41
2022-10-11T10:09:53.109Z,91.38
2022-10-11T10:12:24.232Z,92.74
2022-10-11T10:15:17.740Z,87.93
2022-10-11T10:17:52.198Z,88.33
2022-10-11T10:20:25.391Z,86.40
2022-10-11T10:22:52.639Z,85.84
2022-10-11T10:25:43.371Z,84.20
2022-10-11T10:28:23.334Z,84.84
2022-10-11T10:30:55.378Z,83.96
2022-10-11T10:33:24.821Z,81.79
2022-10-11T10:35:58.377Z,81.37
2022-10-11T10:38:38.656Z,81.84
2022-10-11T10:41:10.954Z,84.35
2022-10-11T10:43:40.556Z,85.33
2022-10-11T10:46:22.561Z,83.56
2022-10-11T10:52:37.593Z,82.78
2022-10-11T10:55:12.771Z,86.39
2022-10-11T10:57:59.372Z,88.47
2022-10-11T11:00:30.533Z,84.29
2022-10-11T11:03:05.737Z,85.87
2022-10-11T11:05:53.778Z,87.78
2022-10-11T11:08:39.222Z,82.90
2022-10-11T11:11:23.904Z,88.11
2022-10-11T11:14:23.171Z,81.78
2022-10-11T11:17:08.510Z,80.02
2022-10-11T11:19:53.353Z,80.45
2022-10-11T11:22:22.627Z,82.85
2022-10-11T11:25:01.308Z,81.55
2022-10-11T11:27:42.039Z,80.71
2022-10-11T11:30:27.221Z,77.57
2022-10-11T11:33:12.116Z,77.07
2022-10-11T11:35:46.299Z,84.64
2022-10-11T11:38:37.816Z,79.77
2022-10-11T11:41:13.333Z,77.33
2022-10-11T11:43:53.455Z,77.03
2022-10-11T11:46:29.398Z,76.76
2022-10-11T11:49:00.413Z,77.48
2022-10-11T11:51:41.503Z,77.38
2022-10-11T11:54:35.610Z,75.31
2022-10-11T11:57:24.191Z,77.99
2022-10-11T12:00:19.866Z,81.65
2022-10-11T12:02:52.672Z,81.31
2022-10-11T12:05:24.873Z,79.84
2022-10-11T12:07:54.717Z,73.43
2022-10-11T12:10:28.817Z,68.86
2022-10-11T12:13:08.439Z,66.27
2022-10-11T12:15:36.558Z,64.50
2022-10-11T12:18:12.825Z,62.52
2022-10-11T12:20:41.746Z,68.33
2022-10-11T12:23:30.348Z,66.54
2022-10-11T12:26:18.044Z,69.53
2022-10-11T12:29:00.346Z,71.95
2022-10-11T12:31:35.733Z,69.12
2022-10-11T12:34:02.446Z,73.30
2022-10-11T12:36:29.721Z,65.20
2022-10-11T12:39:18.210Z,66.34
2022-10-11T12:41:47.629Z,60.73
2022-10-11T12:44:28.754Z,57.27
2022-10-11T12:46:55.645Z,54.53
2022-10-11T12:49:33.997Z,52.84
2022-10-11T12:52:04.246Z,55.82
2022-10-11T12:54:45.989Z,53.61
2022-10-11T12:57:34.478Z,51.52
2022-10-11T13:00:17.978Z,49.78
2022-10-11T13:02:44.883Z,53.59
2022-10-11T13:05:23.451Z,54.36
2022-10-11T13:07:53.183Z,57.67
2022-10-11T13:10:42.482Z,60.68
2022-10-11T13:13:29.267Z,62.04
2022-10-11T13:15:59.043Z,61.14
2022-10-11T13:18:26.515Z,62.01
2022-10-11T13:20:53.389Z,58.36
2022-10-11T13:23:30.013Z,57.43
2022-10-11T13:25:56.868Z,55.89
2022-10-11T13:28:24.010Z,55.99
2022-10-11T13:30:56.303Z,54.43
2022-10-11T13:33:32.110Z,54.73
2022-10-11T13:36:04.675Z,52.58
2022-10-11T13:38:35.195Z,54.04
2022-10-11T13:41:05.201Z,51.04
2022-10-11T13:43:32.809Z,54.34
2022-10-11T13:46:08.939Z,55.48
2022-10-11T13:48:42.949Z,54.00
2022-10-11T13:51:17.923Z,57.67
2022-10-11T13:54:03.799Z,58.95
2022-10-11T13:56:36.034Z,63.00
2022-10-11T13:59:03.303Z,62.38
2022-10-11T14:01:44.020Z,60.74
2022-10-11T14:04:13.457Z,61.72
2022-10-11T14:06:49.224Z,59.57
2022-10-11T14:09:27.089Z,60.27
2022-10-11T14:11:54.494Z,60.82
2022-10-11T14:14:33.212Z,56.30
2022-10-11T14:17:14.464Z,56.43
2022-10-11T14:19:42.656Z,56.49
2022-10-11T14:22:16.399Z,54.67
2022-10-11T14:24:47.319Z,58.94
2022-10-11T14:27:19.423Z,55.46
2022-10-11T14:30:00.571Z,55.92
2022-10-11T14:32:34.807Z,55.05
2022-10-11T14:35:01.555Z,55.13
2022-10-11T14:37:28.268Z,54.85
2022-10-11T14:39:54.968Z,54.95
2022-10-11T14:42:21.664Z,56.57
2022-10-11T14:44:48.345Z,55.74
2022-10-11T14:47:16.843Z,56.94
2022-10-11T14:49:43.708Z,57.17
2022-10-11T14:52:11.809Z,59.96
2022-10-11T14:54:38.666Z,61.10
2022-10-11T14:57:08.351Z,61.50
2022-10-11T14:59:37.765Z,60.68
2022-10-11T15:02:07.258Z,61.43
2022-10-11T15:04:34.412Z,60.30
2022-10-11T15:07:01.628Z,62.14
2022-10-11T15:09:28.695Z,62.33
2022-10-11T15:11:55.468Z,63.05
2022-10-11T15:14:24.017Z,66.72
2022-10-11T15:16:51.715Z,67.63
2022-10-11T15:19:21.928Z,69.48
2022-10-11T15:21:49.491Z,70.27
2022-10-11T15:24:16.591Z,71.22
2022-10-11T15:26:44.049Z,71.69
2022-10-11T15:29:12.703Z,71.07
2022-10-11T15:31:39.756Z,72.59
2022-10-11T15:34:06.553Z,74.47
2022-10-11T15:36:33.316Z,75.34
2022-10-11T15:39:00.054Z,78.11
2022-10-11T15:41:26.868Z,80.35
2022-10-11T15:43:53.700Z,82.58
2022-10-11T15:46:22.785Z,84.49
2022-10-11T15:48:51.859Z,87.52
2022-10-11T15:51:18.678Z,89.44
2022-10-11T15:53:45.456Z,91.72
2022-10-11T15:56:19.375Z,93.72
2022-10-11T15:58:46.273Z,96.20
2022-10-11T16:01:18.786Z,95.07
2022-10-11T16:03:47.722Z,97.22
2022-10-11T16:06:15.377Z,99.93
2022-10-11T16:08:42.073Z,100.00
2022-10-11T16:11:10.135Z,100.00
2022-10-11T16:13:37.513Z,100.00
2022-10-11T16:16:07.065Z,100.00
2022-10-11T16:18:35.819Z,100.00
2022-10-11T16:21:09.371Z,100.00
2022-10-11T16:23:36.856Z,100.00
2022-10-11T16:26:07.137Z,100.00
2022-10-11T16:28:34.377Z,100.00
2022-10-11T16:31:05.539Z,100.00
2022-10-11T16:33:32.338Z,100.00
2022-10-11T16:36:18.961Z,100.00
2022-10-11T16:38:45.891Z,100.00
2022-10-11T16:41:12.416Z,100.00
2022-10-11T16:43:39.124Z,100.00
2022-10-11T16:46:06.026Z,100.00
2022-10-11T16:48:32.944Z,100.00
2022-10-11T16:51:07.223Z,100.00
2022-10-11T16:53:35.445Z,100.00
2022-10-11T16:56:09.990Z,100.00
2022-10-11T16:58:37.537Z,100.00
2022-10-11T17:01:08.963Z,100.00
2022-10-11T17:03:35.852Z,100.00
2022-10-11T17:06:03.082Z,100.00
2022-10-11T17:08:30.230Z,100.00
2022-10-11T17:10:57.873Z,100.00
2022-10-11T17:13:25.271Z,100.00
2022-10-11T17:15:52.262Z,100.00
2022-10-11T17:18:18.888Z,100.00
2022-10-11T17:20:51.819Z,100.00
2022-10-11T17:23:19.211Z,100.00
2022-10-11T17:25:47.371Z,100.00
2022-10-11T17:28:14.656Z,100.00
2022-10-11T17:30:42.461Z,100.00
2022-10-11T17:33:09.770Z,100.00
2022-10-11T17:35:36.902Z,100.00
2022-10-11T17:38:06.119Z,100.00
2022-10-11T17:40:33.229Z,100.00
2022-10-11T17:42:59.937Z,100.00
2022-10-11T17:45:26.660Z,100.00
2022-10-11T17:47:53.998Z,100.00
2022-10-11T17:50:20.839Z,100.00
2022-10-11T17:52:47.755Z,100.00
2022-10-11T17:55:14.738Z,100.00
2022-10-11T17:57:41.471Z,100.00
2022-10-11T18:00:08.877Z,100.00
2022-10-11T18:02:35.647Z,100.00
2022-10-11T18:05:03.331Z,100.00
2022-10-11T18:07:30.141Z,100.00
2022-10-11T18:09:57.062Z,100.00
2022-10-11T18:12:23.911Z,100.00
2022-10-11T18:14:51.193Z,100.00
2022-10-11T18:17:18.949Z,100.00
2022-10-11T18:19:45.672Z,100.00
2022-10-11T18:22:12.384Z,100.00
2022-10-11T18:24:39.229Z,100.00
2022-10-11T18:27:06.018Z,100.00
2022-10-11T18:29:33.188Z,100.00
2022-10-11T18:31:59.901Z,100.00
2022-10-11T18:34:26.584Z,100.00
2022-10-11T18:36:53.296Z,100.00
2022-10-11T18:39:21.812Z,100.00
2022-10-11T18:41:48.527Z,100.00
2022-10-11T18:44:16.699Z,100.00
2022-10-11T18:46:44.804Z,100.00
2022-10-11T18:49:12.363Z,100.00
2022-10-11T18:51:41.152Z,100.00
2022-10-11T18:54:12.056Z,100.00
2022-10-11T18:56:41.120Z,100.00
2022-10-11T18:59:07.958Z,100.00
2022-10-11T19:01:38.329Z,100.00
2022-10-11T19:04:06.519Z,100.00
2022-10-11T19:06:36.461Z,100.00
2022-10-11T19:09:08.553Z,100.00
2022-10-11T19:11:37.037Z,100.00
2022-10-11T19:14:07.189Z,100.00
2022-10-11T19:16:37.949Z,100.00
2022-10-11T19:19:06.597Z,100.00
2022-10-11T19:21:34.004Z,100.00
2022-10-11T19:24:01.906Z,100.00
2022-10-11T19:26:34.029Z,100.00
2022-10-11T19:29:14.761Z,100.00
2022-10-11T19:31:44.606Z,100.00
2022-10-11T19:34:12.067Z,100.00
2022-10-11T19:36:39.517Z,100.00
2022-10-11T19:39:06.506Z,100.00
2022-10-11T19:41:33.418Z,100.00
2022-10-11T19:44:00.245Z,100.00
2022-10-11T19:46:49.828Z,100.00
2022-10-11T19:49:17.869Z,100.00
2022-10-11T19:51:45.388Z,100.00
2022-10-11T19:54:14.384Z,100.00
2022-10-11T19:56:42.607Z,100.00
2022-10-11T19:59:11.163Z,100.00
2022-10-11T20:01:38.866Z,100.00
2022-10-11T20:04:07.921Z,100.00
2022-10-11T20:06:38.540Z,100.00
2022-10-11T20:09:28.627Z,100.00
2022-10-11T20:11:56.978Z,100.00
2022-10-11T20:14:23.853Z,100.00
2022-10-11T20:16:51.064Z,100.00
2022-10-11T20:19:18.924Z,100.00
2022-10-11T20:21:46.035Z,100.00
2022-10-11T20:24:12.977Z,100.00
2022-10-11T20:26:40.449Z,100.00
2022-10-11T20:29:07.656Z,100.00
2022-10-11T20:31:40.639Z,100.00
2022-10-11T20:34:07.709Z,100.00
2022-10-11T20:36:36.238Z,100.00
2022-10-11T20:39:04.644Z,100.00
2022-10-11T20:41:34.652Z,100.00
2022-10-11T20:44:03.108Z,100.00
2022-10-11T20:46:34.728Z,100.00
2022-10-11T20:49:04.463Z,100.00
2022-10-11T20:51:33.740Z,100.00
2022-10-11T20:54:02.052Z,100.00
2022-10-11T20:56:29.755Z,100.00
2022-10-11T20:58:57.990Z,100.00
2022-10-11T21:01:37.113Z,100.00
2022-10-11T21:04:05.630Z,100.00
2022-10-11T21:06:33.495Z,100.00
2022-10-11T21:09:01.082Z,100.00
2022-10-11T21:11:29.755Z,100.00
2022-10-11T21:13:57.927Z,100.00
2022-10-11T21:16:25.290Z,100.00
2022-10-11T21:18:53.612Z,100.00
2022-10-11T21:21:20.467Z,100.00
2022-10-11T21:23:47.613Z,100.00
2022-10-11T21:26:14.662Z,100.00
2022-10-11T21:28:41.407Z,100.00
2022-10-11T21:31:10.608Z,100.00
2022-10-11T21:33:38.197Z,100.00
2022-10-11T21:36:06.953Z,100.00
2022-10-11T21:38:34.636Z,100.00
2022-10-11T21:41:10.063Z,100.00
2022-10-11T21:43:38.325Z,100.00
2022-10-11T21:46:15.956Z,100.00
2022-10-11T21:48:42.788Z,100.00
2022-10-11T21:51:15.612Z,100.00
2022-10-11T21:53:42.430Z,100.00
2022-10-11T21:56:09.233Z,100.00
2022-10-11T21:58:35.936Z,100.00
2022-10-11T22:01:03.170Z,100.00
2022-10-11T22:03:29.965Z,100.00
2022-10-11T22:05:56.660Z,100.00
2022-10-11T22:08:23.385Z,100.00
2022-10-11T22:10:55.507Z,100.00
2022-10-11T22:13:22.263Z,100.00
2022-10-11T22:15:49.274Z,100.00
2022-10-11T22:18:16.561Z,100.00
2022-10-11T22:20:43.863Z,100.00
2022-10-11T22:23:11.535Z,100.00
2022-10-11T22:25:39.831Z,100.00
2022-10-11T22:28:07.167Z,100.00
2022-10-11T22:30:34.577Z,100.00
2022-10-11T22:33:01.283Z,100.00
2022-10-11T22:35:28.004Z,100.00
2022-10-11T22:37:54.704Z,100.00
2022-10-11T22:40:21.414Z,100.00
2022-10-11T22:42:48.189Z,100.00
2022-10-11T22:45:14.957Z,100.00
2022-10-11T22:47:41.680Z,100.00
2022-10-11T22:50:08.779Z,100.00
2022-10-11T22:52:35.330Z,100.00
2022-10-11T22:55:02.019Z,100.00
2022-10-11T22:57:29.632Z,100.00
2022-10-11T22:59:56.377Z,100.00
2022-10-11T23:02:23.066Z,100.00
2022-10-11T23:04:49.845Z,100.00
2022-10-11T23:07:16.543Z,100.00
2022-10-11T23:09:43.299Z,100.00
2022-10-11T23:12:09.984Z,100.00
2022-10-11T23:14:36.671Z,100.00
2022-10-11T23:17:03.363Z,100.00
2022-10-11T23:19:30.056Z,100.00
2022-10-11T23:21:56.783Z,100.00
2022-10-11T23:24:23.540Z,100.00
2022-10-11T23:26:50.275Z,100.00
2022-10-11T23:29:17.042Z,100.00
2022-10-11T23:31:44.534Z,100.00
2022-10-11T23:34:11.256Z,100.00
2022-10-11T23:36:37.986Z,100.00
2022-10-11T23:39:04.741Z,100.00
2022-10-11T23:41:31.724Z,100.00
2022-10-11T23:43:58.678Z,100.00
2022-10-11T23:46:25.706Z,100.00
2022-10-11T23:48:52.386Z,100.00
2022-10-11T23:51:19.135Z,100.00
2022-10-11T23:53:45.805Z,100.00
2022-10-11T23:56:12.636Z,100.00
2022-10-11T23:58:39.517Z,100.00
